Time;durP1;ratioP1;P1;durP2;ratioP2;P2;SDS_P1;SDS_P2;PMS_P1;PMS_P2;Temp;Humidity;BMP_temperature;BMP_pressure;BME280_temperature;BME280_humidity;BME280_pressure;Samples;Min_cycle;Max_cycle;Signal;HPM_P1;HPM_P2
2023/02/21 02:15:06;;;;;;;4.50;2.07;;;;;;;-142.37;100.00;59669.53;5094519;28;20172;-59
2023/02/21 02:17:59;;;;;;;3.67;1.90;;;;;;;-142.37;100.00;59669.53;5092994;28;20047;-60
2023/02/21 02:20:49;;;;;;;6.35;2.42;;;;;;;-142.37;100.00;59669.53;5092922;28;20055;-60
2023/02/21 02:23:45;;;;;;;3.80;1.92;;;;;;;-142.37;100.00;59669.53;5092458;28;20049;-58
2023/02/21 02:26:19;;;;;;;2.97;1.97;;;;;;;-142.37;100.00;59669.53;5093048;28;20028;-57
2023/02/21 02:29:09;;;;;;;6.35;2.33;;;;;;;-142.37;100.00;59669.53;5093220;28;20024;-59
2023/02/21 02:32:09;;;;;;;5.60;2.60;;;;;;;-142.37;100.00;59669.53;5092803;28;20480;-57
2023/02/21 02:34:44;;;;;;;4.53;2.22;;;;;;;-142.37;100.00;59669.53;5095250;28;20196;-60
2023/02/21 02:37:22;;;;;;;3.42;2.40;;;;;;;-142.37;100.00;59669.53;5094636;28;20024;-61
2023/02/21 02:40:21;;;;;;;4.00;2.13;;;;;;;-142.37;100.00;59669.53;5092662;28;20144;-59
2023/02/21 02:43:16;;;;;;;4.13;2.20;;;;;;;-142.37;100.00;59669.53;5069635;28;20067;-58
2023/02/21 02:45:47;;;;;;;3.40;2.30;;;;;;;-142.37;100.00;59669.53;5092533;28;20365;-59
2023/02/21 02:48:26;;;;;;;5.07;2.22;;;;;;;-142.37;100.00;59669.53;5093471;28;20473;-58
2023/02/21 02:50:52;;;;;;;3.33;2.20;;;;;;;-142.37;100.00;59669.53;5093853;28;20035;-59
2023/02/21 02:53:24;;;;;;;6.18;3.03;;;;;;;-142.37;100.00;59669.53;5093825;28;20379;-59
2023/02/21 02:55:55;;;;;;;5.20;2.70;;;;;;;-142.37;100.00;59669.53;5093474;28;20032;-58
2023/02/21 02:58:24;;;;;;;4.95;3.08;;;;;;;-142.37;100.00;59669.53;5093562;28;20024;-59
2023/02/21 03:01:29;;;;;;;4.97;2.90;;;;;;;-142.37;100.00;59669.53;5093198;28;20067;-59
2023/02/21 03:04:07;;;;;;;5.77;3.20;;;;;;;-142.37;100.00;59669.53;5092075;28;20502;-60
2023/02/21 03:06:54;;;;;;;3.90;2.73;;;;;;;-142.37;100.00;59669.53;5093299;28;20032;-59
2023/02/21 03:09:49;;;;;;;3.83;2.63;;;;;;;-142.37;100.00;59669.53;5093426;28;20081;-60
2023/02/21 03:12:28;;;;;;;4.00;2.92;;;;;;;-142.37;100.00;59669.53;5050868;28;20042;-59
2023/02/21 03:15:02;;;;;;;4.40;3.03;;;;;;;-142.37;100.00;59669.53;5093222;28;20607;-58
2023/02/21 03:17:31;;;;;;;4.82;3.50;;;;;;;-142.37;100.00;59669.53;5091799;28;20054;-59
2023/02/21 03:20:00;;;;;;;6.03;3.67;;;;;;;-142.37;100.00;59669.53;5093582;28;20028;-59
2023/02/21 03:22:29;;;;;;;6.20;3.30;;;;;;;-142.37;100.00;59669.53;5091506;28;20027;-59
2023/02/21 03:24:59;;;;;;;5.72;3.42;;;;;;;-142.37;100.00;59669.53;5091683;28;20035;-58
2023/02/21 03:27:26;;;;;;;5.40;3.15;;;;;;;-142.37;100.00;59669.53;5093013;28;20028;-59
2023/02/21 03:29:55;;;;;;;6.55;3.95;;;;;;;-142.37;100.00;59669.53;5093010;28;20480;-58
2023/02/21 03:34:51;;;;;;;5.43;3.73;;;;;;;-142.37;100.00;59669.53;5093585;28;20374;-62
2023/02/21 03:37:33;;;;;;;7.45;4.03;;;;;;;-142.37;100.00;59669.53;5091833;28;20123;-60
2023/02/21 03:40:01;;;;;;;7.37;3.97;;;;;;;-142.37;100.00;59669.53;5093143;28;20077;-58
2023/02/21 03:42:27;;;;;;;6.63;3.97;;;;;;;-142.37;100.00;59669.53;5092916;28;20020;-58
2023/02/21 03:44:52;;;;;;;6.85;3.92;;;;;;;-142.37;100.00;59669.53;5093016;28;20092;-59
2023/02/21 03:47:18;;;;;;;6.38;3.50;;;;;;;-142.37;100.00;59669.53;5091408;28;20111;-60
2023/02/21 03:49:44;;;;;;;4.67;3.63;;;;;;;-142.37;100.00;59669.53;5093314;28;20361;-59
2023/02/21 03:52:13;;;;;;;6.78;3.72;;;;;;;-142.37;100.00;59669.53;5093351;28;20024;-57
2023/02/21 03:54:40;;;;;;;7.43;3.65;;;;;;;-142.37;100.00;59669.53;5094981;28;20345;-58
2023/02/21 03:57:06;;;;;;;9.57;4.70;;;;;;;-142.37;100.00;59669.53;5093635;28;20562;-58
2023/02/21 03:59:31;;;;;;;5.38;3.20;;;;;;;-142.37;100.00;59669.53;5092721;28;20069;-58
2023/02/21 04:01:57;;;;;;;5.30;3.80;;;;;;;-142.37;100.00;59669.53;5094216;28;20024;-57
2023/02/21 04:04:23;;;;;;;6.50;3.90;;;;;;;-142.37;100.00;59669.53;5091361;28;20377;-60
2023/02/21 04:06:50;;;;;;;7.68;3.92;;;;;;;-142.37;100.00;59669.53;5091729;28;20024;-60
2023/02/21 04:09:15;;;;;;;7.13;4.38;;;;;;;-142.37;100.00;59669.53;5090823;28;20956;-59
2023/02/21 04:11:45;;;;;;;8.20;4.15;;;;;;;-142.37;100.00;59669.53;5091127;28;20020;-59
2023/02/21 04:14:11;;;;;;;8.48;4.35;;;;;;;-142.37;100.00;59669.53;5091570;28;20027;-60
2023/02/21 04:16:37;;;;;;;6.32;4.15;;;;;;;-142.37;100.00;59669.53;5092399;28;20042;-59
2023/02/21 04:19:03;;;;;;;7.30;4.10;;;;;;;-142.37;100.00;59669.53;5091031;28;20548;-59
2023/02/21 04:21:29;;;;;;;11.02;4.80;;;;;;;-142.37;100.00;59669.53;5091221;28;20032;-59
2023/02/21 04:23:56;;;;;;;11.02;5.60;;;;;;;-142.37;100.00;59669.53;5092331;28;20506;-59
2023/02/21 04:26:25;;;;;;;10.27;4.78;;;;;;;-142.37;100.00;59669.53;5091208;28;20464;-58
2023/02/21 04:28:51;;;;;;;9.15;4.95;;;;;;;-142.37;100.00;59669.53;5092408;28;20031;-60
2023/02/21 04:31:17;;;;;;;7.45;4.03;;;;;;;-142.37;100.00;59669.53;5091088;28;20164;-58
2023/02/21 04:33:43;;;;;;;7.55;4.40;;;;;;;-142.37;100.00;59669.53;5092310;28;20059;-59
2023/02/21 04:36:10;;;;;;;8.43;4.60;;;;;;;-142.37;100.00;59669.53;5092613;28;20028;-59
2023/02/21 04:38:38;;;;;;;7.47;4.18;;;;;;;-142.37;100.00;59669.53;5090680;28;20032;-60
2023/02/21 04:41:04;;;;;;;6.70;4.03;;;;;;;-142.37;100.00;59669.53;5092056;28;20028;-58
2023/02/21 04:43:30;;;;;;;9.07;4.90;;;;;;;-142.37;100.00;59669.53;5092348;28;20115;-59
2023/02/21 04:45:56;;;;;;;8.65;4.35;;;;;;;-142.37;100.00;59669.53;5092514;28;20108;-60
2023/02/21 04:48:21;;;;;;;5.20;3.80;;;;;;;-142.37;100.00;59669.53;5092170;28;20472;-59
2023/02/21 04:50:47;;;;;;;6.60;4.00;;;;;;;-142.37;100.00;59669.53;5091991;28;20535;-60
2023/02/21 04:53:13;;;;;;;6.05;4.10;;;;;;;-142.37;100.00;59669.53;5091634;28;20444;-59
2023/02/21 04:55:38;;;;;;;6.32;3.70;;;;;;;-142.37;100.00;59669.53;5090641;28;20035;-58
2023/02/21 04:58:05;;;;;;;5.82;3.25;;;;;;;-142.37;100.00;59669.53;5092204;28;20500;-60
2023/02/21 05:00:30;;;;;;;5.80;3.42;;;;;;;-142.37;100.00;59669.53;5092189;28;20227;-59
2023/02/21 05:02:56;;;;;;;6.10;3.60;;;;;;;-142.37;100.00;59669.53;5091643;28;20141;-58
2023/02/21 05:05:22;;;;;;;6.22;3.35;;;;;;;-142.37;100.00;59669.53;5091662;28;20032;-59
2023/02/21 05:07:48;;;;;;;6.90;3.80;;;;;;;-142.37;100.00;59669.53;5092001;28;20507;-59
2023/02/21 05:10:16;;;;;;;4.65;2.80;;;;;;;-142.37;100.00;59669.53;5090418;28;20031;-60
2023/02/21 05:12:42;;;;;;;5.32;2.83;;;;;;;-142.37;100.00;59669.53;5094026;28;20031;-59
2023/02/21 05:15:08;;;;;;;5.80;2.78;;;;;;;-142.37;100.00;59669.53;5093869;28;20028;-59
2023/02/21 05:17:34;;;;;;;6.60;3.22;;;;;;;-142.37;100.00;59669.53;5095393;28;20055;-58
2023/02/21 05:20:00;;;;;;;4.43;2.88;;;;;;;-142.37;100.00;59669.53;5095183;28;20024;-59
2023/02/21 05:22:25;;;;;;;6.45;3.63;;;;;;;-142.37;100.00;59669.53;5095469;28;20503;-59
2023/02/21 05:24:51;;;;;;;5.73;2.90;;;;;;;-142.37;100.00;59669.53;5093841;28;20084;-59
2023/02/21 05:27:19;;;;;;;3.38;2.42;;;;;;;-142.37;100.00;59669.53;5093284;28;20119;-59
2023/02/21 05:29:52;;;;;;;5.82;3.10;;;;;;;-142.37;100.00;59669.53;5093653;28;20511;-59
2023/02/21 05:32:20;;;;;;;5.32;3.20;;;;;;;-142.37;100.00;59669.53;5094816;28;20028;-58
2023/02/21 05:34:46;;;;;;;4.82;2.85;;;;;;;-142.37;100.00;59669.53;5092865;28;20124;-59
2023/02/21 05:37:14;;;;;;;4.72;3.03;;;;;;;-142.37;100.00;59669.53;5092407;28;20042;-60
2023/02/21 05:39:39;;;;;;;4.72;2.45;;;;;;;-142.37;100.00;59669.53;5094429;28;20046;-60
2023/02/21 05:42:06;;;;;;;5.15;2.78;;;;;;;-142.37;100.00;59669.53;5092744;28;20464;-59
2023/02/21 05:44:32;;;;;;;4.18;2.58;;;;;;;-142.37;100.00;59669.53;5094442;28;20111;-59
2023/02/21 05:46:58;;;;;;;3.45;2.30;;;;;;;-142.37;100.00;59669.53;5094100;28;20094;-57
2023/02/21 05:49:24;;;;;;;5.40;3.00;;;;;;;-142.37;100.00;59669.53;5094207;28;20063;-58
2023/02/21 05:51:50;;;;;;;3.88;2.20;;;;;;;-142.37;100.00;59669.53;5094424;28;20437;-59
2023/02/21 05:54:18;;;;;;;4.13;2.45;;;;;;;-142.37;100.00;59669.53;5094625;28;20107;-60
2023/02/21 05:56:46;;;;;;;4.97;2.17;;;;;;;-142.37;100.00;59669.53;5093824;28;20036;-59
2023/02/21 05:59:13;;;;;;;4.20;1.98;;;;;;;-142.37;100.00;59669.53;5093689;28;20028;-59
2023/02/21 06:01:39;;;;;;;3.25;1.90;;;;;;;-142.37;100.00;59669.53;5093705;28;20536;-60
2023/02/21 06:04:06;;;;;;;3.92;2.10;;;;;;;-142.37;100.00;59669.53;5093762;28;20038;-60
2023/02/21 06:06:35;;;;;;;4.03;2.40;;;;;;;-142.37;100.00;59669.53;5094018;28;20027;-58
2023/02/21 06:09:01;;;;;;;3.10;1.90;;;;;;;-142.37;100.00;59669.53;5092117;28;20554;-60
2023/02/21 06:11:32;;;;;;;3.40;2.03;;;;;;;-142.37;100.00;59669.53;5093756;28;20023;-60
2023/02/21 06:13:59;;;;;;;4.85;2.20;;;;;;;-142.37;100.00;59669.53;5093457;28;20032;-60
2023/02/21 06:16:25;;;;;;;3.33;2.40;;;;;;;-142.37;100.00;59669.53;5093501;28;20048;-61
2023/02/21 06:18:52;;;;;;;4.50;2.20;;;;;;;-142.37;100.00;59669.53;5091592;28;20396;-61
2023/02/21 06:21:18;;;;;;;2.50;1.48;;;;;;;-142.37;100.00;59669.53;5090855;28;20031;-59
2023/02/21 06:23:44;;;;;;;2.40;1.83;;;;;;;-142.37;100.00;59669.53;5092122;28;20043;-59
2023/02/21 06:26:11;;;;;;;3.42;2.08;;;;;;;-142.37;100.00;59669.53;5092695;28;20028;-60
2023/02/21 06:28:36;;;;;;;3.58;1.90;;;;;;;-142.37;100.00;59669.53;5092891;28;20024;-60
2023/02/21 06:31:03;;;;;;;3.70;1.85;;;;;;;-142.37;100.00;59669.53;5092492;28;20085;-58
2023/02/21 06:33:29;;;;;;;3.70;2.08;;;;;;;-142.37;100.00;59669.53;5092891;28;20028;-59
2023/02/21 06:35:55;;;;;;;3.55;2.58;;;;;;;-142.37;100.00;59669.53;5093408;28;20494;-60
2023/02/21 06:38:21;;;;;;;3.22;2.05;;;;;;;-142.37;100.00;59669.53;5091827;28;20038;-61
2023/02/21 06:40:47;;;;;;;4.05;2.00;;;;;;;-142.37;100.00;59669.53;5091933;28;20118;-65
2023/02/21 06:43:13;;;;;;;3.20;1.95;;;;;;;-142.37;100.00;59669.53;5091441;28;20523;-59
2023/02/21 06:45:39;;;;;;;3.35;1.88;;;;;;;-142.37;100.00;59669.53;5092611;28;20106;-59
2023/02/21 06:48:06;;;;;;;3.30;2.05;;;;;;;-142.37;100.00;59669.53;5092910;28;20119;-60
2023/02/21 06:50:33;;;;;;;3.95;2.10;;;;;;;-142.37;100.00;59669.53;5092730;28;20024;-60
2023/02/21 06:52:59;;;;;;;3.97;1.88;;;;;;;-142.37;100.00;59669.53;5092603;28;20027;-60
2023/02/21 06:55:25;;;;;;;21.58;3.20;;;;;;;-142.37;100.00;59669.53;5090739;28;20058;-61
2023/02/21 06:57:50;;;;;;;4.07;1.75;;;;;;;-142.37;100.00;59669.53;5090898;28;20028;-60
2023/02/21 07:00:16;;;;;;;4.32;2.20;;;;;;;-142.37;100.00;59669.53;5090784;28;20115;-61
2023/02/21 07:02:43;;;;;;;2.58;1.80;;;;;;;-142.37;100.00;59669.53;5092038;28;20080;-61
2023/02/21 07:05:09;;;;;;;4.70;2.05;;;;;;;-142.37;100.00;59669.53;5091823;28;20020;-60
2023/02/21 07:07:35;;;;;;;5.22;2.67;;;;;;;-142.37;100.00;59669.53;5091654;28;20028;-60
2023/02/21 07:10:01;;;;;;;4.32;2.42;;;;;;;-142.37;100.00;59669.53;5090629;28;20048;-61
2023/02/21 07:12:27;;;;;;;3.42;2.50;;;;;;;-142.37;100.00;59669.53;5092866;28;20039;-60
2023/02/21 07:14:54;;;;;;;25.10;4.45;;;;;;;-142.37;100.00;59669.53;5090700;28;20032;-60
2023/02/21 07:17:19;;;;;;;5.25;2.33;;;;;;;-142.37;100.00;59669.53;5090009;28;20124;-61
2023/02/21 07:19:45;;;;;;;4.22;2.88;;;;;;;-142.37;100.00;59669.53;5091333;28;20028;-60
2023/02/21 07:22:11;;;;;;;35.50;4.50;;;;;;;-142.37;100.00;59669.53;5090003;28;20169;-59
2023/02/21 07:24:37;;;;;;;8.25;3.10;;;;;;;-142.37;100.00;59669.53;5091505;28;20067;-60
2023/02/21 07:27:03;;;;;;;10.32;3.75;;;;;;;-142.37;100.00;59669.53;5090375;28;20464;-59
2023/02/21 07:29:29;;;;;;;3.75;2.75;;;;;;;-142.37;100.00;59669.53;5091904;28;20028;-61
2023/02/21 07:31:55;;;;;;;5.05;3.08;;;;;;;-142.37;100.00;59669.53;5091916;28;20031;-60
2023/02/21 07:34:21;;;;;;;5.85;3.10;;;;;;;-142.37;100.00;59669.53;5090701;28;20167;-60
2023/02/21 07:36:47;;;;;;;5.85;3.55;;;;;;;-142.37;100.00;59669.53;5091611;28;20024;-60
2023/02/21 07:39:13;;;;;;;7.72;3.58;;;;;;;-142.37;100.00;59669.53;5090070;28;20099;-61
2023/02/21 07:41:39;;;;;;;6.57;3.60;;;;;;;-142.37;100.00;59669.53;5089693;28;20059;-59
2023/02/21 07:44:06;;;;;;;6.93;3.33;;;;;;;-142.37;100.00;59669.53;5090154;28;20127;-60
2023/02/21 07:46:33;;;;;;;5.57;3.50;;;;;;;-142.37;100.00;59669.53;5091117;28;20031;-60
2023/02/21 07:48:59;;;;;;;7.45;3.75;;;;;;;-142.37;100.00;59669.53;5090544;28;20332;-60
2023/02/21 07:51:29;;;;;;;33.78;6.85;;;;;;;-142.37;100.00;59669.53;5091387;28;20198;-61
2023/02/21 07:53:56;;;;;;;10.05;4.60;;;;;;;-142.37;100.00;59669.53;5091006;28;20028;-61
2023/02/21 07:56:22;;;;;;;10.68;4.88;;;;;;;-142.37;100.00;59669.53;5089694;28;20087;-61
2023/02/21 07:58:48;;;;;;;11.80;4.70;;;;;;;-142.37;100.00;59669.53;5091174;28;20097;-60
2023/02/21 08:01:14;;;;;;;12.43;4.63;;;;;;;-142.37;100.00;59669.53;5090595;28;20076;-61
2023/02/21 08:03:40;;;;;;;8.60;4.18;;;;;;;-142.37;100.00;59669.53;5091401;28;20059;-61
2023/02/21 08:06:08;;;;;;;12.65;4.63;;;;;;;-142.37;100.00;59669.53;5091438;28;20051;-60
2023/02/21 08:08:33;;;;;;;10.45;4.78;;;;;;;-142.37;100.00;59669.53;5089828;28;20024;-58
2023/02/21 08:10:59;;;;;;;9.13;4.35;;;;;;;-142.37;100.00;59669.53;5091211;28;20024;-59
2023/02/21 08:13:25;;;;;;;15.70;4.95;;;;;;;-142.37;100.00;59669.53;5091219;28;20395;-61
2023/02/21 08:15:53;;;;;;;11.82;5.40;;;;;;;-142.37;100.00;59669.53;5091558;28;20495;-60
2023/02/21 08:18:23;;;;;;;10.88;5.10;;;;;;;-142.37;100.00;59669.53;5091632;28;20029;-60
2023/02/21 08:20:51;;;;;;;8.63;4.07;;;;;;;-142.37;100.00;59669.53;5091971;28;20073;-59
2023/02/21 08:23:17;;;;;;;11.60;4.82;;;;;;;-142.37;100.00;59669.53;5090796;28;20059;-60
2023/02/21 08:25:46;;;;;;;10.60;4.65;;;;;;;-142.37;100.00;59669.53;5091562;28;20464;-59
2023/02/21 08:28:12;;;;;;;12.52;4.80;;;;;;;-142.37;100.00;59669.53;5090184;28;20039;-59
2023/02/21 08:30:38;;;;;;;11.63;4.70;;;;;;;-142.37;100.00;59669.53;5090386;28;20396;-59
2023/02/21 08:33:04;;;;;;;15.23;4.22;;;;;;;-142.37;100.00;59669.53;5091719;28;20040;-57
2023/02/21 08:35:30;;;;;;;11.52;4.15;;;;;;;-142.37;100.00;59669.53;5091682;28;20392;-59
2023/02/21 08:38:01;;;;;;;16.23;5.80;;;;;;;-142.37;100.00;59669.53;5091706;28;20035;-58
2023/02/21 08:40:29;;;;;;;15.75;5.18;;;;;;;-142.37;100.00;59669.53;5091603;28;20024;-59
2023/02/21 08:42:56;;;;;;;13.25;5.07;;;;;;;-142.37;100.00;59669.53;5091546;28;20054;-59
2023/02/21 08:45:23;;;;;;;17.50;2.80;;;;;;;-142.37;100.00;59669.53;5091343;28;20058;-59
2023/02/21 08:47:50;;;;;;;11.63;4.97;;;;;;;-142.37;100.00;59669.53;5095337;28;20473;-59
2023/02/21 08:50:17;;;;;;;12.50;4.68;;;;;;;-142.37;100.00;59669.53;5094391;28;20456;-59
2023/02/21 08:52:45;;;;;;;10.55;5.18;;;;;;;-142.37;100.00;59669.53;5095826;28;20400;-60
2023/02/21 08:55:11;;;;;;;12.77;4.97;;;;;;;-142.37;100.00;59669.53;5095845;28;20081;-63
2023/02/21 08:57:37;;;;;;;8.38;4.32;;;;;;;-142.37;100.00;59669.53;5095145;28;20032;-59
2023/02/21 09:00:05;;;;;;;15.15;5.30;;;;;;;-142.37;100.00;59669.53;5093967;28;20051;-59
2023/02/21 09:02:32;;;;;;;12.07;5.60;;;;;;;-142.37;100.00;59669.53;5095200;28;20024;-60
2023/02/21 09:04:58;;;;;;;11.20;4.82;;;;;;;-142.37;100.00;59669.53;5094946;28;20142;-60
2023/02/21 09:07:27;;;;;;;12.25;5.28;;;;;;;-142.37;100.00;59669.53;5094886;28;20035;-60
2023/02/21 09:09:53;;;;;;;8.52;4.15;;;;;;;-142.37;100.00;59669.53;5095422;28;20024;-59
2023/02/21 09:12:18;;;;;;;10.13;4.65;;;;;;;-142.37;100.00;59669.53;5095548;28;20028;-59
2023/02/21 09:14:44;;;;;;;10.75;4.50;;;;;;;-142.37;100.00;59669.53;5094768;28;20032;-59
2023/02/21 09:17:13;;;;;;;11.63;4.25;;;;;;;-142.37;100.00;59669.53;5094785;28;20492;-57
2023/02/21 09:19:39;;;;;;;15.43;4.20;;;;;;;-142.37;100.00;59669.53;5095856;28;20028;-59
2023/02/21 09:22:09;;;;;;;6.45;4.25;;;;;;;-142.37;100.00;59669.53;5094935;28;20456;-60
2023/02/21 09:24:34;;;;;;;5.70;3.67;;;;;;;-142.37;100.00;59669.53;5095416;28;20035;-61
2023/02/21 09:27:03;;;;;;;8.90;4.30;;;;;;;-142.37;100.00;59669.53;5095051;28;20024;-59
2023/02/21 09:29:31;;;;;;;4.40;2.13;;;;;;;-142.37;100.00;59669.53;5095385;28;20068;-58
2023/02/21 09:31:57;;;;;;;6.82;4.18;;;;;;;-142.37;100.00;59669.53;5094359;28;20365;-60
2023/02/21 09:34:23;;;;;;;9.57;3.60;;;;;;;-142.37;100.00;59669.53;5093992;28;20028;-59
2023/02/21 09:36:53;;;;;;;8.10;3.80;;;;;;;-142.37;100.00;59669.53;5092769;28;20024;-60
2023/02/21 09:39:20;;;;;;;5.53;3.63;;;;;;;-142.37;100.00;59669.53;5094456;28;20020;-57
2023/02/21 09:41:46;;;;;;;7.72;3.55;;;;;;;-142.37;100.00;59669.53;5092574;28;20476;-60
2023/02/21 09:44:25;;;;;;;7.43;3.63;;;;;;;-142.37;100.00;59669.53;5094101;28;20035;-59
2023/02/21 09:47:19;;;;;;;7.82;3.75;;;;;;;-142.37;100.00;59669.53;5094416;28;20031;-60
2023/02/21 09:49:46;;;;;;;10.73;3.97;;;;;;;-142.37;100.00;59669.53;5094352;28;20020;-60
2023/02/21 09:52:38;;;;;;;6.82;3.75;;;;;;;-142.37;100.00;59669.53;5093437;28;20021;-60
2023/02/21 09:55:15;;;;;;;5.82;3.85;;;;;;;-142.37;100.00;59669.53;5092583;28;20028;-60
2023/02/21 09:57:41;;;;;;;5.72;3.88;;;;;;;-142.37;100.00;59669.53;5094367;28;20064;-59
2023/02/21 10:00:20;;;;;;;6.68;4.00;;;;;;;-142.37;100.00;59669.53;5092856;28;20075;-60
2023/02/21 10:02:57;;;;;;;7.30;4.00;;;;;;;-142.37;100.00;59669.53;5092926;28;20074;-59
2023/02/21 10:05:29;;;;;;;4.95;3.38;;;;;;;-142.37;100.00;59669.53;5093400;28;20085;-60
2023/02/21 10:08:05;;;;;;;5.50;3.42;;;;;;;-142.37;100.00;59669.53;5093305;28;20122;-59
2023/02/21 10:10:57;;;;;;;5.78;3.90;;;;;;;-142.37;100.00;59669.53;5093229;28;20077;-61
2023/02/21 10:13:42;;;;;;;7.28;3.63;;;;;;;-142.37;100.00;59669.53;5093735;28;20034;-59
2023/02/21 10:16:28;;;;;;;5.78;3.08;;;;;;;-142.37;100.00;59669.53;5092014;28;20164;-60
2023/02/21 10:19:15;;;;;;;5.18;3.38;;;;;;;-142.37;100.00;59669.53;5091889;28;20437;-58
2023/02/21 10:21:53;;;;;;;4.70;3.15;;;;;;;-142.37;100.00;59669.53;5091385;28;20032;-60
2023/02/21 10:24:22;;;;;;;4.15;2.70;;;;;;;-142.37;100.00;59669.53;5093088;28;20093;-60
2023/02/21 10:27:20;;;;;;;6.47;3.00;;;;;;;-142.37;100.00;59669.53;5091750;28;20035;-60
2023/02/21 10:30:03;;;;;;;6.82;3.83;;;;;;;-142.37;100.00;59669.53;5087178;28;20032;-60
2023/02/21 10:32:29;;;;;;;4.95;3.20;;;;;;;-142.37;100.00;59669.53;5092866;28;20036;-59
2023/02/21 10:34:57;;;;;;;6.10;2.97;;;;;;;-142.37;100.00;59669.53;5092695;28;20060;-60
2023/02/21 10:37:35;;;;;;;7.10;3.10;;;;;;;-142.37;100.00;59669.53;5092300;28;20074;-61
2023/02/21 10:40:23;;;;;;;6.07;2.63;;;;;;;-142.37;100.00;59669.53;5091059;28;20050;-60
2023/02/21 10:42:53;;;;;;;6.18;3.63;;;;;;;-142.37;100.00;59669.53;5092317;28;20032;-60
2023/02/21 10:45:26;;;;;;;10.82;3.42;;;;;;;-142.37;100.00;59669.53;5091995;28;20114;-60
2023/02/21 10:48:05;;;;;;;7.30;3.00;;;;;;;-142.37;100.00;59669.53;5092658;28;20156;-61
2023/02/21 10:50:42;;;;;;;4.45;2.60;;;;;;;-142.37;100.00;59669.53;5092353;28;20089;-60
2023/02/21 10:53:21;;;;;;;6.28;3.92;;;;;;;-142.37;100.00;59669.53;5090886;28;20043;-60
2023/02/21 10:56:12;;;;;;;7.07;2.78;;;;;;;-142.37;100.00;59669.53;5091159;28;20070;-61
2023/02/21 10:58:39;;;;;;;5.97;3.33;;;;;;;-142.37;100.00;59669.53;5090607;28;20050;-60
2023/02/21 11:01:21;;;;;;;6.50;3.75;;;;;;;-142.37;100.00;59669.53;5091508;28;20039;-61
2023/02/21 11:04:05;;;;;;;6.20;3.58;;;;;;;-142.37;100.00;59669.53;5092255;28;20081;-60
2023/02/21 11:06:42;;;;;;;7.95;3.40;;;;;;;-142.37;100.00;59669.53;5091159;28;20028;-60
2023/02/21 11:09:41;;;;;;;5.53;3.72;;;;;;;-142.37;100.00;59669.53;5091110;28;20027;-60
2023/02/21 11:12:30;;;;;;;6.65;3.20;;;;;;;-142.37;100.00;59669.53;5085218;28;20392;-60
2023/02/21 11:14:56;;;;;;;4.60;2.60;;;;;;;-142.37;100.00;59669.53;5090426;28;20165;-61
2023/02/21 11:17:24;;;;;;;4.40;2.50;;;;;;;-142.37;100.00;59669.53;5090423;28;20052;-60
2023/02/21 11:20:07;;;;;;;5.35;2.75;;;;;;;-142.37;100.00;59669.53;5092181;28;20028;-60
2023/02/21 11:22:33;;;;;;;7.97;3.80;;;;;;;-142.37;100.00;59669.53;5091780;28;20081;-59
2023/02/21 11:25:19;;;;;;;6.68;3.95;;;;;;;-142.37;100.00;59669.53;5091885;28;20020;-60
2023/02/21 11:27:56;;;;;;;;;;;;;;;-142.37;100.00;59669.53;5092390;28;20028;-59
2023/02/21 11:30:22;;;;;;;5.50;4.03;;;;;;;-142.37;100.00;59669.53;5090718;28;19912;-60
2023/02/21 11:32:51;;;;;;;6.72;3.85;;;;;;;-142.37;100.00;59669.53;5092280;28;20099;-59
2023/02/21 11:35:25;;;;;;;3.42;2.13;;;;;;;-142.37;100.00;59669.53;5089981;28;20417;-60
2023/02/21 11:38:00;;;;;;;7.10;2.92;;;;;;;-142.37;100.00;59669.53;5090708;28;20020;-60
2023/02/21 11:40:41;;;;;;;5.82;2.80;;;;;;;-142.37;100.00;59669.53;5091575;28;20051;-60
2023/02/21 11:43:16;;;;;;;5.70;3.40;;;;;;;-142.37;100.00;59669.53;5090988;28;20040;-60
2023/02/21 11:46:01;;;;;;;7.95;3.03;;;;;;;-142.37;100.00;59669.53;5090050;28;20040;-60
2023/02/21 11:48:32;;;;;;;3.22;2.08;;;;;;;-142.37;100.00;59669.53;5090814;28;20024;-60
2023/02/21 11:51:04;;;;;;;5.18;3.38;;;;;;;-142.37;100.00;59669.53;5091235;28;20047;-57
2023/02/21 11:53:40;;;;;;;6.68;2.97;;;;;;;-142.37;100.00;59669.53;5091000;28;20380;-60
2023/02/21 11:56:13;;;;;;;6.00;3.00;;;;;;;-142.37;100.00;59669.53;5089867;28;20028;-60
2023/02/21 11:59:00;;;;;;;6.22;3.22;;;;;;;-142.37;100.00;59669.53;5090302;28;20024;-60
2023/02/21 12:01:45;;;;;;;4.03;2.15;;;;;;;-142.37;100.00;59669.53;5091378;28;20036;-59
2023/02/21 12:04:41;;;;;;;4.82;2.60;;;;;;;-142.37;100.00;59669.53;5090285;28;20024;-59
2023/02/21 12:07:19;;;;;;;4.55;2.72;;;;;;;-142.37;100.00;59669.53;5091279;28;20068;-59
2023/02/21 12:10:13;;;;;;;5.80;3.42;;;;;;;-142.37;100.00;59669.53;5091570;28;20418;-60
2023/02/21 12:13:13;;;;;;;4.00;2.70;;;;;;;-142.37;100.00;59669.53;5091892;28;20024;-59
2023/02/21 12:16:10;;;;;;;6.32;2.92;;;;;;;-142.37;100.00;59669.53;5089639;28;20455;-61
2023/02/21 12:18:47;;;;;;;7.10;3.78;;;;;;;-142.37;100.00;59669.53;5090264;28;20118;-61
2023/02/21 12:21:37;;;;;;;6.22;3.67;;;;;;;-142.37;100.00;59669.53;5092851;28;20028;-60
2023/02/21 12:24:41;;;;;;;5.05;3.50;;;;;;;-142.37;100.00;59669.53;5095483;28;20039;-60
2023/02/21 12:27:15;;;;;;;5.85;3.45;;;;;;;-142.37;100.00;59669.53;5033299;28;20034;-60
2023/02/21 12:29:51;;;;;;;5.47;3.17;;;;;;;-142.37;100.00;59669.53;5082258;28;20043;-60
2023/02/21 12:32:47;;;;;;;6.10;3.00;;;;;;;-142.37;100.00;59669.53;5095802;28;20032;-60
2023/02/21 12:35:30;;;;;;;4.20;2.65;;;;;;;-142.37;100.00;59669.53;5093461;28;20446;-60
2023/02/21 12:38:03;;;;;;;5.30;3.33;;;;;;;-142.37;100.00;59669.53;5095647;28;20051;-58
2023/02/21 12:41:04;;;;;;;6.55;3.42;;;;;;;-142.37;100.00;59669.53;5095402;28;20099;-61
2023/02/21 12:44:00;;;;;;;5.38;2.60;;;;;;;-142.37;100.00;59669.53;5094995;28;20039;-60
2023/02/21 12:47:24;;;;;;;4.50;3.10;;;;;;;-142.37;100.00;59669.53;5093885;28;20458;-61
2023/02/21 12:50:00;;;;;;;4.38;1.58;;;;;;;-142.37;100.00;59669.53;5069469;28;20055;-60
2023/02/21 12:52:43;;;;;;;2.83;2.05;;;;;;;-142.37;100.00;59669.53;5093466;28;20080;-61
2023/02/21 12:55:26;;;;;;;3.92;2.30;;;;;;;-142.37;100.00;59669.53;5095054;28;20453;-60
2023/02/21 12:58:13;;;;;;;8.10;4.35;;;;;;;-142.37;100.00;59669.53;5093565;28;20056;-60
2023/02/21 13:01:16;;;;;;;6.32;3.13;;;;;;;-142.37;100.00;59669.53;5094985;28;20492;-59
2023/02/21 13:04:17;;;;;;;3.75;3.03;;;;;;;-142.37;100.00;59669.53;5093682;28;20036;-61
2023/02/21 13:06:58;;;;;;;5.78;2.88;;;;;;;-142.37;100.00;59669.53;5094898;28;20034;-59
2023/02/21 13:09:35;;;;;;;4.45;2.70;;;;;;;-142.37;100.00;59669.53;5094992;28;20040;-60
2023/02/21 13:12:08;;;;;;;5.45;3.25;;;;;;;-142.37;100.00;59669.53;5094734;28;20121;-60
2023/02/21 13:14:48;;;;;;;4.68;2.13;;;;;;;-142.37;100.00;59669.53;5096348;28;20500;-62
2023/02/21 13:17:15;;;;;;;7.45;3.40;;;;;;;-142.37;100.00;59669.53;5093602;28;20055;-60
2023/02/21 13:20:04;;;;;;;3.28;2.00;;;;;;;-142.37;100.00;59669.53;5092157;28;20113;-61
2023/02/21 13:25:32;;;;;;;5.43;3.00;;;;;;;-142.37;100.00;59669.53;5093726;28;20105;-60
2023/02/21 13:28:09;;;;;;;5.10;2.97;;;;;;;-142.37;100.00;59669.53;5093374;28;20442;-61
2023/02/21 13:30:45;;;;;;;5.55;2.40;;;;;;;-142.37;100.00;59669.53;5092041;28;20059;-58
2023/02/21 13:33:48;;;;;;;3.33;2.08;;;;;;;-142.37;100.00;59669.53;5092121;28;20078;-60
2023/02/21 13:36:19;;;;;;;4.82;2.90;;;;;;;-142.37;100.00;59669.53;5091949;28;20032;-60
2023/02/21 13:38:44;;;;;;;2.60;1.80;;;;;;;-142.37;100.00;59669.53;5092142;28;20034;-60
2023/02/21 13:41:16;;;;;;;3.40;2.25;;;;;;;-142.37;100.00;59669.53;5091692;28;20056;-62
2023/02/21 13:43:51;;;;;;;5.03;2.17;;;;;;;-142.37;100.00;59669.53;5092231;28;20031;-61
2023/02/21 13:46:29;;;;;;;4.03;2.72;;;;;;;-142.37;100.00;59669.53;5092413;28;20044;-61
2023/02/21 13:49:32;;;;;;;5.57;2.58;;;;;;;-142.37;100.00;59669.53;5092568;28;20812;-61
2023/02/21 13:52:19;;;;;;;6.47;2.78;;;;;;;-142.37;100.00;59669.53;5092145;28;20122;-62
2023/02/21 13:55:18;;;;;;;6.03;3.38;;;;;;;-142.37;100.00;59669.53;5092125;28;20024;-58